Time;durP1;ratioP1;P1;durP2;ratioP2;P2;SDS_P1;SDS_P2;PMS_P1;PMS_P2;Temp;Humidity;BMP_temperature;BMP_pressure;BME280_temperature;BME280_humidity;BME280_pressure;Samples;Min_cycle;Max_cycle;Signal;HPM_P1;HPM_P2
2022/05/19 00:01:52;;;;;;;5.20;1.40;;;23.70;99.90;;;;;;5035707;28;20312;-78
2022/05/19 00:04:20;;;;;;;1.23;0.90;;;23.70;99.90;;;;;;5035853;28;20201;-78
2022/05/19 00:06:47;;;;;;;2.08;1.05;;;23.70;99.90;;;;;;5035746;28;20200;-79
2022/05/19 00:09:14;;;;;;;7.50;1.15;;;23.70;99.90;;;;;;5035481;28;20203;-78
2022/05/19 00:11:42;;;;;;;5.18;1.00;;;23.70;99.90;;;;;;5035149;28;20216;-78
2022/05/19 00:14:10;;;;;;;4.07;1.35;;;23.70;99.90;;;;;;5035324;28;20226;-79
2022/05/19 00:16:38;;;;;;;1.52;1.10;;;23.70;99.90;;;;;;5035714;28;20205;-79
2022/05/19 00:19:06;;;;;;;1.20;1.00;;;23.70;99.90;;;;;;5035926;28;20205;-79
2022/05/19 00:21:33;;;;;;;1.30;1.17;;;23.70;99.90;;;;;;5036251;28;20248;-79
2022/05/19 00:24:00;;;;;;;1.00;0.90;;;23.70;99.90;;;;;;5035472;28;20204;-79
2022/05/19 00:26:27;;;;;;;2.67;1.20;;;23.70;99.90;;;;;;5035366;28;20209;-78
2022/05/19 00:28:54;;;;;;;3.00;1.17;;;23.70;99.90;;;;;;5035549;28;20200;-78
2022/05/19 00:31:21;;;;;;;1.55;1.15;;;23.70;99.90;;;;;;5035056;28;20309;-78
2022/05/19 00:33:49;;;;;;;3.33;1.30;;;23.70;99.90;;;;;;5035087;28;20719;-79
2022/05/19 00:36:18;;;;;;;3.08;1.50;;;23.70;99.90;;;;;;5034411;28;20779;-78
2022/05/19 00:38:45;;;;;;;5.38;1.60;;;23.70;99.90;;;;;;5035202;28;20201;-78
2022/05/19 00:41:13;;;;;;;1.40;1.33;;;23.70;99.90;;;;;;5035166;28;20324;-79
2022/05/19 00:43:48;;;;;;;8.10;1.17;;;23.70;99.90;;;;;;5036243;28;20204;-79
2022/05/19 00:46:21;;;;;;;5.50;1.23;;;23.70;99.90;;;;;;5035962;28;20588;-79
2022/05/19 00:48:54;;;;;;;2.58;1.33;;;23.70;99.90;;;;;;5035547;28;20195;-79
2022/05/19 00:51:28;;;;;;;1.70;1.15;;;23.70;99.90;;;;;;5035618;28;20217;-79
2022/05/19 00:53:57;;;;;;;3.53;1.20;;;23.70;99.90;;;;;;5035409;28;20234;-79
2022/05/19 00:56:28;;;;;;;5.40;1.30;;;23.70;99.90;;;;;;5035965;28;20553;-79
2022/05/19 00:59:01;;;;;;;5.82;0.98;;;23.70;99.90;;;;;;5036308;28;20271;-79
2022/05/19 01:01:27;;;;;;;4.50;1.15;;;23.70;99.90;;;;;;5036232;28;20255;-79
2022/05/19 01:04:00;;;;;;;2.83;1.05;;;23.70;99.90;;;;;;5035309;28;20203;-79
2022/05/19 01:06:28;;;;;;;3.63;1.15;;;23.70;99.90;;;;;;5034161;28;20695;-78
2022/05/19 01:09:00;;;;;;;1.20;1.20;;;23.70;99.90;;;;;;5034046;28;20567;-78
2022/05/19 01:11:27;;;;;;;4.80;1.10;;;23.70;99.90;;;;;;5034063;28;20223;-78
2022/05/19 01:13:55;;;;;;;2.95;1.20;;;23.70;99.90;;;;;;5034463;28;20224;-78
2022/05/19 01:16:22;;;;;;;1.10;1.10;;;23.70;99.90;;;;;;5034096;28;20205;-79
2022/05/19 01:18:50;;;;;;;1.20;1.10;;;23.70;99.90;;;;;;5034117;28;20545;-79
2022/05/19 01:21:21;;;;;;;1.00;1.00;;;23.70;99.90;;;;;;5034088;28;20755;-79
2022/05/19 01:24:04;;;;;;;3.13;1.27;;;23.70;99.90;;;;;;5034286;28;20195;-79
2022/05/19 01:26:41;;;;;;;1.20;1.10;;;23.70;99.90;;;;;;5033775;28;20638;-78
2022/05/19 01:29:09;;;;;;;1.70;0.88;;;23.70;99.90;;;;;;5034049;28;20180;-78
2022/05/19 01:31:38;;;;;;;0.95;0.85;;;23.60;99.90;;;;;;5033653;28;20761;-79
2022/05/19 01:34:07;;;;;;;1.45;1.35;;;23.70;99.90;;;;;;5033944;28;20232;-79
2022/05/19 01:36:35;;;;;;;1.02;0.88;;;23.60;99.90;;;;;;5033807;28;20668;-79
2022/05/19 01:39:05;;;;;;;3.67;1.13;;;23.70;99.90;;;;;;5034283;28;20564;-79
2022/05/19 01:41:43;;;;;;;1.67;1.17;;;23.70;99.90;;;;;;5033469;28;20224;-78
2022/05/19 01:44:28;;;;;;;1.15;0.90;;;23.70;99.90;;;;;;5033568;28;20185;-78
2022/05/19 01:47:06;;;;;;;1.05;1.00;;;23.70;99.90;;;;;;5033750;28;20181;-78
2022/05/19 01:49:38;;;;;;;4.43;1.00;;;23.70;99.90;;;;;;5033037;28;20185;-78
2022/05/19 01:52:16;;;;;;;2.80;1.65;;;23.70;99.90;;;;;;5034042;28;20227;-79
2022/05/19 01:54:49;;;;;;;3.60;1.27;;;23.70;99.90;;;;;;5033276;28;20196;-78
2022/05/19 01:57:24;;;;;;;6.95;1.05;;;23.70;99.90;;;;;;5033458;28;20192;-78
2022/05/19 01:59:59;;;;;;;0.80;0.80;;;23.70;99.90;;;;;;5033862;28;20192;-78
2022/05/19 02:02:33;;;;;;;4.40;1.00;;;23.70;99.90;;;;;;5058815;22;20228;-80
2022/05/19 02:05:04;;;;;;;3.05;0.82;;;23.70;99.90;;;;;;5035183;28;20240;-82
2022/05/19 02:07:34;;;;;;;1.23;0.90;;;23.70;99.90;;;;;;5035945;28;20186;-81
2022/05/19 02:10:05;;;;;;;4.15;0.90;;;23.70;99.90;;;;;;5036696;28;20715;-81
2022/05/19 02:12:34;;;;;;;5.47;1.20;;;23.70;99.90;;;;;;5036593;28;20219;-82
2022/05/19 02:15:06;;;;;;;1.17;1.05;;;23.70;99.90;;;;;;5036484;28;20232;-81
2022/05/19 02:17:34;;;;;;;6.20;1.13;;;23.70;99.90;;;;;;5036548;28;20181;-81
2022/05/19 02:20:07;;;;;;;2.35;1.00;;;23.70;99.90;;;;;;5036031;28;20668;-82
2022/05/19 02:22:37;;;;;;;3.63;1.23;;;23.70;99.90;;;;;;5036372;28;20319;-81
2022/05/19 02:25:11;;;;;;;2.80;1.55;;;23.70;99.90;;;;;;5036486;28;20628;-80
2022/05/19 02:27:43;;;;;;;8.68;1.73;;;23.70;99.90;;;;;;5036306;28;20277;-80
2022/05/19 02:30:15;;;;;;;8.75;1.27;;;23.70;99.90;;;;;;5036250;28;20276;-81
2022/05/19 02:32:42;;;;;;;2.08;1.23;;;23.70;99.90;;;;;;5035918;28;20227;-81
2022/05/19 02:35:09;;;;;;;6.53;1.10;;;23.70;99.90;;;;;;5035669;28;20229;-81
2022/05/19 02:37:37;;;;;;;3.08;1.25;;;23.70;99.90;;;;;;5036263;28;20663;-81
2022/05/19 02:40:05;;;;;;;1.40;1.00;;;23.70;99.90;;;;;;5036456;28;20212;-81
2022/05/19 02:42:32;;;;;;;1.17;1.08;;;23.70;99.90;;;;;;5035518;28;20669;-81
2022/05/19 02:44:59;;;;;;;2.22;1.08;;;23.70;99.90;;;;;;5036196;28;20563;-81
2022/05/19 02:47:27;;;;;;;4.53;1.20;;;23.70;99.90;;;;;;5035738;28;20222;-81
2022/05/19 02:49:54;;;;;;;2.67;1.02;;;23.70;99.90;;;;;;5036514;28;20232;-81
2022/05/19 02:52:21;;;;;;;3.47;1.00;;;23.70;99.90;;;;;;5036048;28;20312;-81
2022/05/19 02:54:48;;;;;;;0.88;0.88;;;23.70;99.90;;;;;;5035788;28;20232;-81
2022/05/19 02:57:15;;;;;;;1.38;0.98;;;23.70;99.90;;;;;;5035886;28;20201;-81
2022/05/19 02:59:42;;;;;;;1.80;1.10;;;23.70;99.90;;;;;;5037562;28;20212;-81
2022/05/19 03:02:10;;;;;;;1.17;1.10;;;23.70;99.90;;;;;;5039404;28;20295;-81
2022/05/19 03:04:38;;;;;;;1.65;1.55;;;23.70;99.90;;;;;;5039591;28;20716;-81
2022/05/19 03:07:06;;;;;;;1.38;1.05;;;23.70;99.90;;;;;;5039208;28;20302;-81
2022/05/19 03:09:33;;;;;;;0.95;0.95;;;23.60;99.90;;;;;;5039679;28;20284;-81
2022/05/19 03:12:00;;;;;;;2.13;1.00;;;23.70;99.90;;;;;;5039109;28;20224;-81
2022/05/19 03:14:27;;;;;;;2.15;0.98;;;23.70;99.90;;;;;;5039255;28;20216;-81
2022/05/19 03:16:54;;;;;;;0.93;0.90;;;23.70;99.90;;;;;;5039276;28;20287;-81
2022/05/19 03:19:22;;;;;;;1.00;1.00;;;23.70;99.90;;;;;;5039033;28;20284;-80
2022/05/19 03:21:50;;;;;;;3.25;0.90;;;23.70;99.90;;;;;;5039161;28;20227;-81
2022/05/19 03:24:17;;;;;;;1.75;1.05;;;23.70;99.90;;;;;;5038837;28;20743;-81
2022/05/19 03:26:44;;;;;;;6.85;1.10;;;23.70;99.90;;;;;;5038830;28;20851;-81
2022/05/19 03:29:11;;;;;;;2.55;1.10;;;23.70;99.90;;;;;;5039476;28;20239;-81
2022/05/19 03:31:38;;;;;;;2.90;1.20;;;23.70;99.90;;;;;;5039105;28;20255;-81
2022/05/19 03:34:05;;;;;;;1.08;1.08;;;23.70;99.90;;;;;;5038851;28;20201;-81
2022/05/19 03:36:33;;;;;;;1.20;1.20;;;23.70;99.90;;;;;;5039249;28;20648;-81
2022/05/19 03:39:01;;;;;;;1.40;0.98;;;23.70;99.90;;;;;;5039202;28;20201;-81
2022/05/19 03:41:28;;;;;;;2.83;1.25;;;23.70;99.90;;;;;;5038439;28;20224;-81
2022/05/19 03:43:55;;;;;;;2.42;1.40;;;23.70;99.90;;;;;;5038418;28;20284;-81
2022/05/19 03:46:22;;;;;;;2.47;1.00;;;23.70;99.90;;;;;;5038374;28;20300;-81
2022/05/19 03:48:49;;;;;;;2.95;1.02;;;23.70;99.90;;;;;;5039020;28;20291;-81
2022/05/19 03:51:23;;;;;;;2.92;1.08;;;23.70;99.90;;;;;;5038305;28;20307;-80
2022/05/19 03:53:49;;;;;;;0.93;0.90;;;23.70;99.90;;;;;;5038261;28;20193;-80
2022/05/19 03:56:20;;;;;;;5.32;1.13;;;23.70;99.90;;;;;;5037276;28;20201;-80
2022/05/19 03:58:47;;;;;;;0.82;0.82;;;23.70;99.90;;;;;;5036597;28;20195;-81
2022/05/19 04:01:13;;;;;;;1.35;0.95;;;23.70;99.90;;;;;;5036802;28;20228;-81
2022/05/19 04:03:40;;;;;;;3.90;1.05;;;23.70;99.90;;;;;;5037235;28;20216;-81
2022/05/19 04:06:08;;;;;;;3.78;1.52;;;23.70;99.90;;;;;;5036832;28;20705;-81
2022/05/19 04:08:34;;;;;;;2.35;1.08;;;23.70;99.90;;;;;;5036367;28;20224;-81
2022/05/19 04:11:01;;;;;;;1.20;1.10;;;23.70;99.90;;;;;;5035736;28;20729;-83
2022/05/19 04:13:30;;;;;;;3.15;0.90;;;23.70;99.90;;;;;;5038089;28;20235;-83
2022/05/19 04:15:57;;;;;;;2.33;1.00;;;23.70;99.90;;;;;;5039221;28;20302;-82
2022/05/19 04:18:24;;;;;;;1.33;0.90;;;23.70;99.90;;;;;;5037787;28;20641;-82
2022/05/19 04:20:51;;;;;;;1.17;0.85;;;23.70;99.90;;;;;;5038156;28;20233;-82
2022/05/19 04:23:18;;;;;;;1.23;0.98;;;23.70;99.90;;;;;;5037729;28;20221;-82
2022/05/19 04:25:45;;;;;;;1.20;1.10;;;23.70;99.90;;;;;;5036585;28;20236;-82
2022/05/19 04:28:12;;;;;;;3.90;0.90;;;23.70;99.90;;;;;;5036835;28;20236;-82
2022/05/19 04:30:41;;;;;;;1.15;1.10;;;23.70;99.90;;;;;;5037088;28;20200;-79
2022/05/19 04:33:08;;;;;;;4.30;1.30;;;23.70;99.90;;;;;;5037341;28;20192;-78
2022/05/19 04:35:35;;;;;;;10.55;1.88;;;23.70;99.90;;;;;;5036422;28;20292;-78
2022/05/19 04:38:07;;;;;;;1.17;1.17;;;23.70;99.90;;;;;;5039579;28;20304;-78
2022/05/19 04:40:36;;;;;;;1.13;1.00;;;23.60;99.90;;;;;;5040354;28;20272;-78
2022/05/19 04:43:03;;;;;;;3.70;1.90;;;23.60;99.90;;;;;;5038556;28;20230;-79
2022/05/19 04:45:30;;;;;;;1.00;1.00;;;23.50;99.90;;;;;;5038056;28;20211;-79
2022/05/19 04:47:59;;;;;;;7.25;2.15;;;23.50;99.90;;;;;;5036166;28;20205;-80
2022/05/19 04:50:26;;;;;;;9.75;2.28;;;23.50;99.90;;;;;;5038431;28;20291;-81
2022/05/19 04:52:53;;;;;;;10.68;2.65;;;23.40;99.90;;;;;;5035937;28;20219;-83
2022/05/19 04:55:20;;;;;;;9.25;1.98;;;23.40;99.90;;;;;;5037375;28;20269;-79
2022/05/19 04:57:47;;;;;;;1.75;1.65;;;23.40;99.90;;;;;;5035989;28;20201;-80
2022/05/19 05:00:15;;;;;;;2.65;1.55;;;23.40;99.90;;;;;;5036861;28;20201;-80
2022/05/19 05:02:42;;;;;;;2.67;1.98;;;23.40;99.90;;;;;;5038129;28;20232;-81
2022/05/19 05:05:11;;;;;;;2.25;1.48;;;23.40;99.90;;;;;;5038229;28;20284;-83
2022/05/19 05:07:38;;;;;;;1.60;1.50;;;23.30;99.90;;;;;;5038956;28;20239;-82
2022/05/19 05:10:06;;;;;;;8.77;2.78;;;23.30;99.90;;;;;;5037383;28;20212;-83
2022/05/19 05:12:33;;;;;;;4.32;1.80;;;23.30;99.90;;;;;;5036593;28;20304;-84
2022/05/19 05:15:00;;;;;;;3.83;2.70;;;23.20;99.90;;;;;;5036681;28;20232;-84
2022/05/19 05:17:27;;;;;;;22.48;4.60;;;23.20;99.90;;;;;;5036883;28;20207;-84
2022/05/19 05:19:54;;;;;;;16.73;3.45;;;23.20;99.90;;;;;;5037231;28;20239;-88
2022/05/19 05:22:22;;;;;;;12.45;3.38;;;23.20;99.90;;;;;;5035330;28;20698;-87
2022/05/19 05:24:49;;;;;;;7.25;2.80;;;23.30;99.90;;;;;;5034608;28;20201;-84
2022/05/19 05:27:16;;;;;;;8.82;2.88;;;23.30;99.90;;;;;;5036325;28;20232;-82
2022/05/19 05:29:42;;;;;;;6.03;2.80;;;23.30;99.90;;;;;;5036014;28;20239;-81
2022/05/19 05:32:10;;;;;;;5.68;3.38;;;23.30;99.90;;;;;;5035930;28;20671;-80
2022/05/19 05:34:37;;;;;;;9.27;3.63;;;23.30;99.90;;;;;;5035385;28;20232;-80
2022/05/19 05:37:06;;;;;;;4.05;3.17;;;23.30;99.90;;;;;;5035692;28;20185;-80
2022/05/19 05:39:34;;;;;;;10.60;3.25;;;23.30;99.90;;;;;;5035514;28;20656;-80
2022/05/19 05:42:01;;;;;;;6.05;3.15;;;23.30;99.90;;;;;;5036624;28;20227;-81
2022/05/19 05:44:28;;;;;;;8.68;3.00;;;23.30;99.90;;;;;;5037570;28;20197;-85
2022/05/19 05:46:55;;;;;;;7.38;2.83;;;23.30;99.90;;;;;;5037518;28;20283;-85
2022/05/19 05:49:22;;;;;;;3.33;2.55;;;23.30;99.90;;;;;;5037747;28;20224;-85
2022/05/19 05:51:48;;;;;;;4.35;2.58;;;23.30;99.90;;;;;;5037125;28;20288;-86
2022/05/19 05:54:15;;;;;;;8.88;3.15;;;23.30;99.90;;;;;;5037647;28;20211;-86
2022/05/19 05:56:44;;;;;;;7.13;2.90;;;23.30;99.90;;;;;;5037348;28;20280;-86
2022/05/19 05:59:11;;;;;;;8.23;2.88;;;23.30;99.90;;;;;;5037660;28;20260;-86
2022/05/19 06:01:38;;;;;;;12.27;3.00;;;23.30;99.90;;;;;;5037083;28;20794;-85
2022/05/19 06:04:05;;;;;;;9.52;2.97;;;23.30;99.90;;;;;;5036986;28;20287;-85
2022/05/19 06:06:32;;;;;;;10.52;2.65;;;23.30;99.90;;;;;;5037711;28;20284;-85
2022/05/19 06:08:59;;;;;;;6.10;2.65;;;23.30;99.90;;;;;;5037388;28;20551;-85
2022/05/19 06:11:25;;;;;;;3.97;2.83;;;23.30;99.90;;;;;;5037177;28;20699;-85
2022/05/19 06:13:54;;;;;;;7.55;3.28;;;23.40;99.90;;;;;;5037101;28;20219;-85
2022/05/19 06:16:21;;;;;;;4.60;2.75;;;23.40;99.90;;;;;;5036966;28;20292;-85
2022/05/19 06:18:48;;;;;;;3.30;2.92;;;23.40;99.90;;;;;;5036868;28;20189;-85
2022/05/19 06:21:15;;;;;;;2.88;2.67;;;23.40;99.90;;;;;;5037876;28;20287;-85
2022/05/19 06:23:42;;;;;;;4.00;3.15;;;23.40;99.90;;;;;;5038897;28;20223;-85
2022/05/19 06:26:09;;;;;;;4.78;2.65;;;23.40;99.90;;;;;;5038159;28;20295;-85
2022/05/19 06:28:35;;;;;;;3.20;2.70;;;23.40;99.90;;;;;;5036731;28;20237;-85
2022/05/19 06:31:04;;;;;;;4.38;2.40;;;23.40;99.90;;;;;;5037009;28;20783;-85
2022/05/19 06:33:34;;;;;;;5.78;2.90;;;23.40;99.90;;;;;;5036494;28;20203;-85
2022/05/19 06:36:01;;;;;;;3.13;2.88;;;23.40;99.90;;;;;;5040372;28;20219;-85
2022/05/19 06:38:28;;;;;;;4.32;2.85;;;23.40;99.90;;;;;;5040062;28;20758;-85
2022/05/19 06:42:00;;;;;;;4.90;2.65;;;23.40;99.90;;;;;;5039593;28;20284;-85
2022/05/19 06:43:42;;;;;;;5.03;2.58;;;23.40;99.90;;;;;;5039626;28;20221;-86
2022/05/19 06:46:10;;;;;;;2.75;2.47;;;23.40;99.90;;;;;;5039885;28;20235;-86
2022/05/19 06:48:38;;;;;;;2.47;2.20;;;23.40;99.80;;;;;;5039893;28;20228;-86
2022/05/19 06:51:05;;;;;;;5.93;2.22;;;23.40;99.60;;;;;;5039360;28;20243;-86
2022/05/19 06:53:31;;;;;;;5.30;2.67;;;23.40;99.40;;;;;;5039765;28;20200;-85
2022/05/19 06:55:58;;;;;;;4.95;2.28;;;23.40;99.30;;;;;;5039115;28;20232;-85
2022/05/19 06:58:25;;;;;;;5.07;2.55;;;23.50;99.30;;;;;;5040203;28;20303;-85
2022/05/19 07:00:53;;;;;;;2.75;2.33;;;23.40;99.00;;;;;;5038796;28;20197;-85
2022/05/19 07:03:21;;;;;;;6.07;2.72;;;23.50;98.90;;;;;;5038951;28;20304;-85
2022/05/19 07:05:48;;;;;;;4.57;2.33;;;23.50;98.80;;;;;;5039134;28;20239;-85
2022/05/19 07:08:14;;;;;;;2.80;2.53;;;23.40;98.50;;;;;;5038457;28;20207;-85
2022/05/19 07:10:41;;;;;;;4.78;2.70;;;23.50;98.50;;;;;;5038333;28;20232;-85
2022/05/19 07:13:08;;;;;;;3.25;2.38;;;23.50;98.30;;;;;;5037872;28;20616;-85
2022/05/19 07:15:35;;;;;;;7.60;3.15;;;23.50;98.20;;;;;;5038128;28;20622;-85
2022/05/19 07:18:02;;;;;;;4.22;2.35;;;23.50;98.10;;;;;;5038109;28;20288;-85
2022/05/19 07:20:44;;;;;;;6.63;2.20;;;23.50;98.00;;;;;;5037836;28;20255;-85
2022/05/19 07:23:14;;;;;;;4.57;2.35;;;23.50;97.80;;;;;;5037652;28;20267;-85
2022/05/19 07:25:42;;;;;;;4.65;2.28;;;23.50;97.70;;;;;;5037619;28;20197;-85
2022/05/19 07:28:09;;;;;;;7.22;2.50;;;23.50;97.60;;;;;;5037823;28;20208;-85
2022/05/19 07:30:36;;;;;;;3.03;2.47;;;23.50;97.40;;;;;;5036785;28;20548;-85
2022/05/19 07:33:03;;;;;;;2.78;2.15;;;23.50;97.30;;;;;;5036417;28;20696;-85
2022/05/19 07:35:32;;;;;;;3.47;2.50;;;23.50;97.20;;;;;;5036646;28;20266;-85
2022/05/19 07:37:59;;;;;;;3.20;2.10;;;23.50;97.00;;;;;;5036958;28;20243;-85
2022/05/19 07:40:27;;;;;;;3.83;2.30;;;23.50;97.00;;;;;;5036141;28;20209;-85
2022/05/19 07:42:53;;;;;;;1.92;1.77;;;23.50;97.00;;;;;;5045469;28;20227;-85
2022/05/19 07:45:21;;;;;;;3.13;2.30;;;23.50;96.90;;;;;;5036007;28;20292;-85
2022/05/19 07:47:48;;;;;;;2.22;2.08;;;23.50;96.70;;;;;;5035572;28;20575;-85
2022/05/19 07:50:15;;;;;;;3.20;2.40;;;23.50;96.60;;;;;;5037012;28;20740;-85
2022/05/19 07:52:43;;;;;;;2.30;2.08;;;23.50;96.60;;;;;;5036819;28;20583;-85
2022/05/19 07:55:10;;;;;;;3.67;2.30;;;23.50;96.40;;;;;;5035764;28;20664;-85
2022/05/19 07:57:38;;;;;;;5.13;2.00;;;23.60;96.40;;;;;;5036036;28;20232;-85
2022/05/19 08:00:05;;;;;;;4.60;2.40;;;23.50;96.20;;;;;;5039049;28;20204;-85
2022/05/19 08:02:32;;;;;;;2.17;2.05;;;23.60;96.20;;;;;;5039825;28;20755;-85
2022/05/19 08:04:59;;;;;;;2.10;1.83;;;23.60;96.20;;;;;;5039105;28;20201;-85
2022/05/19 08:07:26;;;;;;;2.25;1.90;;;23.50;96.10;;;;;;5039292;28;20200;-85
2022/05/19 08:15:38;;;;;;;2.22;1.90;;;23.60;96.00;;;;;;5038719;28;20188;-85
2022/05/19 08:18:09;;;;;;;2.20;2.00;;;23.60;96.00;;;;;;5039228;28;20256;-85
2022/05/19 08:20:39;;;;;;;2.47;1.75;;;23.60;95.90;;;;;;5039104;28;20644;-85
2022/05/19 08:23:06;;;;;;;2.55;2.13;;;23.60;95.80;;;;;;5039286;28;20201;-85
2022/05/19 08:25:35;;;;;;;2.05;1.95;;;23.60;95.80;;;;;;5038799;28;20197;-85
2022/05/19 08:28:02;;;;;;;3.85;1.90;;;23.60;95.70;;;;;;5039271;28;20291;-85
2022/05/19 08:30:29;;;;;;;4.45;2.10;;;23.60;95.70;;;;;;5038595;28;20204;-85
2022/05/19 08:32:55;;;;;;;4.03;2.33;;;23.60;95.60;;;;;;5038602;28;20249;-85
2022/05/19 08:35:23;;;;;;;2.72;1.83;;;23.60;95.60;;;;;;5038614;28;20293;-85
2022/05/19 08:37:50;;;;;;;2.33;1.92;;;23.60;95.50;;;;;;5038588;28;20201;-85
2022/05/19 08:40:18;;;;;;;3.17;2.33;;;23.60;95.50;;;;;;5038351;28;20347;-85
2022/05/19 08:42:51;;;;;;;2.15;1.83;;;23.60;95.50;;;;;;5038639;28;20224;-85
2022/05/19 08:45:23;;;;;;;3.63;1.83;;;23.70;95.50;;;;;;5039029;28;20181;-85
2022/05/19 08:47:56;;;;;;;3.22;2.05;;;23.70;95.40;;;;;;5038291;28;20557;-85
2022/05/19 08:50:34;;;;;;;3.28;1.80;;;23.60;95.40;;;;;;5039030;28;20607;-85
2022/05/19 08:53:06;;;;;;;2.58;1.75;;;23.70;95.20;;;;;;5038389;28;20213;-85
2022/05/19 08:55:34;;;;;;;3.40;1.95;;;23.70;95.30;;;;;;5039338;28;20226;-85
2022/05/19 08:58:19;;;;;;;4.55;1.92;;;23.60;95.20;;;;;;5038027;28;20687;-85
2022/05/19 09:00:51;;;;;;;4.43;2.50;;;23.70;95.10;;;;;;5037697;28;20271;-84
2022/05/19 09:03:24;;;;;;;2.05;1.85;;;23.70;95.20;;;;;;5037996;28;20259;-84
2022/05/19 09:06:15;;;;;;;5.70;2.15;;;23.70;95.20;;;;;;5040143;28;20215;-84
2022/05/19 09:08:55;;;;;;;2.95;1.98;;;23.70;95.20;;;;;;5040388;28;20292;-84
2022/05/19 09:11:25;;;;;;;4.78;1.90;;;23.70;95.00;;;;;;5040687;28;20319;-84
2022/05/19 09:13:57;;;;;;;1.80;1.70;;;23.70;95.10;;;;;;5039277;28;20630;-83
2022/05/19 09:16:27;;;;;;;2.10;1.80;;;23.70;95.00;;;;;;5039850;28;20192;-83
2022/05/19 09:18:57;;;;;;;3.65;1.90;;;23.70;95.00;;;;;;5040479;28;20236;-84
2022/05/19 09:21:26;;;;;;;4.40;2.05;;;23.70;95.00;;;;;;5039603;28;20769;-84
2022/05/19 09:23:53;;;;;;;1.83;1.73;;;23.70;94.90;;;;;;5039903;28;20251;-84
2022/05/19 09:26:41;;;;;;;3.20;2.03;;;23.70;94.90;;;;;;5039762;28;20291;-84
2022/05/19 09:29:11;;;;;;;9.48;2.10;;;23.80;94.70;;;;;;5039621;28;20260;-84
2022/05/19 09:31:41;;;;;;;3.72;2.40;;;23.70;94.80;;;;;;5039311;28;20220;-84
2022/05/19 09:34:09;;;;;;;2.92;2.08;;;23.70;94.80;;;;;;5039462;28;20193;-84
2022/05/19 09:36:41;;;;;;;5.80;1.80;;;23.70;94.80;;;;;;5040297;28;20296;-84
2022/05/19 09:39:15;;;;;;;5.32;2.17;;;23.70;94.70;;;;;;5039899;28;20185;-84
2022/05/19 09:41:46;;;;;;;4.47;2.00;;;23.70;94.70;;;;;;5039508;28;20227;-84
2022/05/19 09:44:16;;;;;;;9.52;2.28;;;23.70;94.70;;;;;;5039500;28;20269;-84
2022/05/19 09:46:47;;;;;;;9.73;1.88;;;23.70;94.60;;;;;;5039755;28;20246;-84
2022/05/19 09:49:26;;;;;;;6.18;2.00;;;23.70;94.70;;;;;;5039598;28;20195;-84
2022/05/19 09:51:54;;;;;;;8.80;2.33;;;23.80;94.70;;;;;;5039824;28;20703;-84
2022/05/19 09:54:23;;;;;;;13.68;2.20;;;23.70;94.60;;;;;;5039269;28;20287;-84
2022/05/19 09:56:52;;;;;;;9.15;2.20;;;23.70;94.60;;;;;;5040227;28;20219;-84
2022/05/19 09:59:23;;;;;;;7.43;1.95;;;23.70;94.60;;;;;;5040168;28;20303;-84
2022/05/19 10:02:01;;;;;;;6.60;1.80;;;23.70;94.60;;;;;;5039649;28;20643;-85
2022/05/19 10:04:37;;;;;;;7.63;2.30;;;23.70;94.60;;;;;;5038716;28;20296;-85
2022/05/19 10:07:09;;;;;;;6.95;2.00;;;23.70;94.60;;;;;;5039616;28;20662;-84
2022/05/19 10:09:42;;;;;;;8.70;2.28;;;23.80;94.70;;;;;;5038924;28;20629;-84
2022/05/19 10:12:11;;;;;;;11.77;2.85;;;23.80;94.70;;;;;;5039206;28;20225;-84
2022/05/19 10:14:42;;;;;;;4.97;2.20;;;23.70;94.60;;;;;;5039495;28;20200;-84
2022/05/19 10:17:17;;;;;;;2.63;1.55;;;23.80;94.60;;;;;;5037076;28;20220;-81
2022/05/19 10:19:59;;;;;;;11.90;2.40;;;23.80;94.60;;;;;;5036761;28;20264;-84
2022/05/19 10:22:47;;;;;;;11.13;2.33;;;23.80;94.40;;;;;;5037151;28;20225;-84
2022/05/19 10:25:42;;;;;;;9.57;2.30;;;23.80;94.40;;;;;;5036435;28;20213;-86
2022/05/19 10:31:31;;;;;;;11.40;2.90;;;23.80;94.60;;;;;;4993533;28;20213;-82
2022/05/19 10:34:22;;;;;;;7.85;2.15;;;23.80;94.70;;;;;;4993424;28;20229;-82
2022/05/19 10:36:58;;;;;;;15.80;2.28;;;23.80;94.50;;;;;;5022219;28;20200;-79
2022/05/19 10:39:41;;;;;;;9.82;2.38;;;23.80;94.70;;;;;;5035049;28;20263;-79
2022/05/19 10:42:16;;;;;;;16.42;2.30;;;23.80;94.40;;;;;;5034818;28;20255;-80
2022/05/19 10:45:07;;;;;;;10.68;2.65;;;23.80;94.50;;;;;;5035685;28;20208;-80
2022/05/19 10:47:46;;;;;;;8.55;2.55;;;23.80;94.40;;;;;;5035504;28;20189;-80
2022/05/19 10:50:25;;;;;;;12.20;2.80;;;23.80;94.50;;;;;;5035354;28;20551;-80
2022/05/19 10:53:27;;;;;;;6.90;2.65;;;23.80;94.50;;;;;;5035906;28;20652;-80
2022/05/19 10:56:05;;;;;;;9.60;2.90;;;23.80;94.50;;;;;;4988293;28;20564;-80
2022/05/19 10:58:52;;;;;;;10.32;2.75;;;23.80;94.60;;;;;;5036204;28;20213;-80
2022/05/19 11:01:34;;;;;;;11.88;3.20;;;23.90;94.50;;;;;;5034278;28;20316;-79
2022/05/19 11:04:36;;;;;;;7.43;2.45;;;23.80;94.50;;;;;;5034456;28;20697;-80
2022/05/19 11:07:31;;;;;;;15.55;3.70;;;23.90;94.40;;;;;;5033066;28;20235;-80
2022/05/19 11:10:34;;;;;;;15.45;3.38;;;23.90;94.40;;;;;;5035552;28;20193;-80
2022/05/19 11:13:13;;;;;;;15.77;4.47;;;23.80;94.50;;;;;;5034979;28;20240;-79
2022/05/19 11:15:44;;;;;;;14.25;3.72;;;23.80;94.70;;;;;;5035188;28;20276;-80
2022/05/19 11:18:16;;;;;;;9.13;3.58;;;23.80;94.70;;;;;;5035452;28;20688;-80
2022/05/19 11:20:59;;;;;;;6.82;3.13;;;23.90;94.70;;;;;;5035731;28;20207;-80
2022/05/19 11:23:32;;;;;;;12.00;3.47;;;23.90;94.40;;;;;;5038966;28;20193;-79
2022/05/19 11:26:26;;;;;;;8.57;3.50;;;23.90;94.70;;;;;;5040144;28;20217;-82
2022/05/19 11:29:15;;;;;;;11.00;4.03;;;23.90;94.50;;;;;;5040734;28;20236;-82
2022/05/19 11:31:47;;;;;;;14.30;4.30;;;24.00;94.60;;;;;;5041029;28;20327;-82
2022/05/19 11:34:22;;;;;;;13.35;3.85;;;23.90;94.70;;;;;;5038399;28;20192;-78
2022/05/19 11:36:56;;;;;;;12.88;4.05;;;23.90;94.70;;;;;;5036323;28;20189;-77
2022/05/19 11:39:32;;;;;;;11.02;3.40;;;23.90;94.60;;;;;;5036667;28;20184;-79
2022/05/19 11:42:20;;;;;;;15.57;3.35;;;23.90;94.60;;;;;;5036859;28;20226;-79
2022/05/19 11:44:47;;;;;;;9.70;4.10;;;24.00;94.50;;;;;;5036891;28;20300;-79
2022/05/19 11:55:12;;;;;;;12.40;3.70;;;23.90;94.70;;;;;;5036291;28;20668;-79
2022/05/19 11:55:47;;;;;;;12.77;4.00;;;24.00;94.60;;;;;;5038470;28;20258;-79
2022/05/19 11:58:20;;;;;;;14.07;4.15;;;24.00;94.80;;;;;;5038854;28;20631;-80
2022/05/19 12:00:55;;;;;;;11.23;3.35;;;24.00;94.80;;;;;;5038325;28;20243;-80
2022/05/19 12:03:28;;;;;;;13.88;3.75;;;24.00;94.60;;;;;;5038855;28;20192;-79
2022/05/19 12:05:58;;;;;;;6.03;3.50;;;24.00;94.70;;;;;;5037931;28;20190;-79
2022/05/19 12:08:31;;;;;;;10.55;3.88;;;24.00;94.70;;;;;;5038229;28;20238;-79
2022/05/19 12:11:11;;;;;;;8.38;3.33;;;24.00;94.60;;;;;;5038964;28;20192;-80
2022/05/19 12:13:39;;;;;;;10.95;3.72;;;24.00;94.50;;;;;;5039489;28;20279;-79
2022/05/19 12:16:10;;;;;;;8.63;3.78;;;24.00;94.70;;;;;;5038790;28;20205;-79
2022/05/19 12:18:44;;;;;;;8.80;4.28;;;24.00;94.60;;;;;;5038147;28;20189;-79
2022/05/19 12:21:40;;;;;;;10.07;3.47;;;24.00;94.60;;;;;;5037439;28;20217;-80
2022/05/19 12:24:12;;;;;;;7.25;3.38;;;24.00;94.60;;;;;;5017865;28;20220;-79
2022/05/19 12:26:52;;;;;;;11.73;4.10;;;24.00;94.70;;;;;;5038309;28;20271;-79
2022/05/19 12:29:30;;;;;;;10.52;3.58;;;24.00;94.60;;;;;;5037413;28;20193;-79
2022/05/19 12:32:04;;;;;;;13.15;3.80;;;24.00;94.60;;;;;;5035911;28;20330;-79
2022/05/19 12:34:33;;;;;;;8.93;3.88;;;24.00;94.70;;;;;;5037164;28;20184;-78
2022/05/19 12:37:09;;;;;;;11.90;3.80;;;24.00;94.70;;;;;;5036283;28;20196;-79
2022/05/19 12:39:48;;;;;;;11.90;3.40;;;24.10;94.60;;;;;;5036752;28;20211;-79
2022/05/19 12:42:24;;;;;;;14.75;3.70;;;24.10;94.50;;;;;;5036594;28;20224;-79
2022/05/19 12:44:53;;;;;;;13.43;3.65;;;24.10;94.60;;;;;;5036666;28;20251;-79
2022/05/19 12:47:22;;;;;;;13.52;4.07;;;24.10;94.80;;;;;;5036785;28;20201;-78
2022/05/19 12:50:21;;;;;;;8.20;3.42;;;24.00;94.60;;;;;;5035724;28;20201;-78
2022/05/19 12:53:06;;;;;;;13.73;3.50;;;24.10;94.40;;;;;;4955308;29;20304;-83
2022/05/19 12:55:46;;;;;;;11.68;3.70;;;24.10;94.70;;;;;;5028583;28;20197;-81
2022/05/19 12:58:48;;;;;;;9.57;3.97;;;24.10;94.60;;;;;;5037555;28;20260;-80
2022/05/19 13:01:22;;;;;;;10.55;3.20;;;24.10;94.50;;;;;;5036393;28;20319;-81
2022/05/19 13:03:54;;;;;;;8.63;3.38;;;24.10;94.80;;;;;;5038331;28;20712;-81
2022/05/19 13:06:24;;;;;;;8.95;3.13;;;24.10;94.80;;;;;;5038255;28;20193;-83
2022/05/19 13:08:54;;;;;;;6.63;3.63;;;24.10;94.80;;;;;;5037340;28;20624;-80
2022/05/19 13:11:29;;;;;;;8.68;3.95;;;24.10;94.80;;;;;;5037654;28;20417;-81
2022/05/19 13:14:00;;;;;;;9.80;4.15;;;24.10;94.80;;;;;;5036651;28;20185;-81
2022/05/19 13:16:30;;;;;;;9.43;3.42;;;24.10;94.80;;;;;;5036665;28;20667;-81
2022/05/19 13:19:02;;;;;;;8.45;3.72;;;24.10;94.80;;;;;;5036155;28;20738;-81
2022/05/19 13:21:34;;;;;;;12.48;3.50;;;24.20;94.90;;;;;;5036201;28;20220;-81